<?xml version="1.0" encoding="UTF-8" standalone="no" ?>
<gpx xmlns="http://www.topografix.com/GPX/1/1" xmlns:xsi="http://www.w3.org/2001/XMLSchema-instance" xsi:schemaLocation="http://www.topografix.com/GPX/1/1 http://www.topografix.com/GPX/1/1/gpx.xsd" version="1.1" creator="VisuGPX - https://www.visugpx.com">
  <metadata>
    <name>De Meillerie à Salvigny</name>
    <desc><![CDATA[Randonnée en Haute-Savoie]]></desc>
  </metadata>
  <trk>
    <name><![CDATA[ACTIVE LOG: 26 JUL 2015 11:37]]></name>
    <trkseg>
      <trkpt lat="46.36902" lon="6.74064">
        <ele>1917.01</ele>
        <time>2015-07-26T09:38:37Z</time>
      </trkpt>
      <trkpt lat="46.36883" lon="6.7402">
        <ele>1914.12</ele>
        <time>2015-07-26T09:39:42Z</time>
      </trkpt>
      <trkpt lat="46.36847" lon="6.73963">
        <ele>1921.33</ele>
        <time>2015-07-26T09:40:47Z</time>
      </trkpt>
      <trkpt lat="46.36814" lon="6.73933">
        <ele>1931.43</ele>
        <time>2015-07-26T09:41:52Z</time>
      </trkpt>
      <trkpt lat="46.36794" lon="6.73898">
        <ele>1935.75</ele>
        <time>2015-07-26T09:42:57Z</time>
      </trkpt>
      <trkpt lat="46.36766" lon="6.73866">
        <ele>1939.12</ele>
        <time>2015-07-26T09:44:02Z</time>
      </trkpt>
      <trkpt lat="46.36749" lon="6.73853">
        <ele>1938.64</ele>
        <time>2015-07-26T09:45:07Z</time>
      </trkpt>
      <trkpt lat="46.36748" lon="6.73853">
        <ele>1939.12</ele>
        <time>2015-07-26T09:46:12Z</time>
      </trkpt>
      <trkpt lat="46.36747" lon="6.73851">
        <ele>1940.56</ele>
        <time>2015-07-26T09:47:17Z</time>
      </trkpt>
      <trkpt lat="46.36708" lon="6.73849">
        <ele>1926.62</ele>
        <time>2015-07-26T09:48:22Z</time>
      </trkpt>
      <trkpt lat="46.36668" lon="6.73846">
        <ele>1907.39</ele>
        <time>2015-07-26T09:49:27Z</time>
      </trkpt>
      <trkpt lat="46.36629" lon="6.73867">
        <ele>1893.45</ele>
        <time>2015-07-26T09:50:32Z</time>
      </trkpt>
      <trkpt lat="46.36595" lon="6.73878">
        <ele>1879.03</ele>
        <time>2015-07-26T09:51:37Z</time>
      </trkpt>
      <trkpt lat="46.36578" lon="6.73862">
        <ele>1866.54</ele>
        <time>2015-07-26T09:52:42Z</time>
      </trkpt>
      <trkpt lat="46.36561" lon="6.73871">
        <ele>1857.89</ele>
        <time>2015-07-26T09:53:47Z</time>
      </trkpt>
      <trkpt lat="46.36551" lon="6.73911">
        <ele>1847.79</ele>
        <time>2015-07-26T09:54:52Z</time>
      </trkpt>
      <trkpt lat="46.36534" lon="6.73959">
        <ele>1830.97</ele>
        <time>2015-07-26T09:55:57Z</time>
      </trkpt>
      <trkpt lat="46.36525" lon="6.73973">
        <ele>1820.39</ele>
        <time>2015-07-26T09:57:02Z</time>
      </trkpt>
      <trkpt lat="46.36494" lon="6.73957">
        <ele>1807.9</ele>
        <time>2015-07-26T09:58:07Z</time>
      </trkpt>
      <trkpt lat="46.36451" lon="6.73907">
        <ele>1794.92</ele>
        <time>2015-07-26T09:59:12Z</time>
      </trkpt>
      <trkpt lat="46.36423" lon="6.73875">
        <ele>1789.63</ele>
        <time>2015-07-26T10:00:17Z</time>
      </trkpt>
      <trkpt lat="46.36394" lon="6.73844">
        <ele>1785.79</ele>
        <time>2015-07-26T10:01:22Z</time>
      </trkpt>
      <trkpt lat="46.36383" lon="6.73832">
        <ele>1783.86</ele>
        <time>2015-07-26T10:02:27Z</time>
      </trkpt>
      <trkpt lat="46.36328" lon="6.73804">
        <ele>1780.98</ele>
        <time>2015-07-26T10:03:32Z</time>
      </trkpt>
      <trkpt lat="46.36308" lon="6.73768">
        <ele>1776.65</ele>
        <time>2015-07-26T10:04:37Z</time>
      </trkpt>
      <trkpt lat="46.36266" lon="6.73706">
        <ele>1774.25</ele>
        <time>2015-07-26T10:05:42Z</time>
      </trkpt>
      <trkpt lat="46.36229" lon="6.7367">
        <ele>1755.02</ele>
        <time>2015-07-26T10:06:47Z</time>
      </trkpt>
      <trkpt lat="46.36202" lon="6.73668">
        <ele>1752.62</ele>
        <time>2015-07-26T10:07:52Z</time>
      </trkpt>
      <trkpt lat="46.36153" lon="6.73633">
        <ele>1739.16</ele>
        <time>2015-07-26T10:08:57Z</time>
      </trkpt>
      <trkpt lat="46.36096" lon="6.7359">
        <ele>1730.51</ele>
        <time>2015-07-26T10:10:02Z</time>
      </trkpt>
      <trkpt lat="46.36072" lon="6.7353">
        <ele>1728.11</ele>
        <time>2015-07-26T10:11:07Z</time>
      </trkpt>
      <trkpt lat="46.36033" lon="6.73492">
        <ele>1736.28</ele>
        <time>2015-07-26T10:12:12Z</time>
      </trkpt>
      <trkpt lat="46.36031" lon="6.73473">
        <ele>1740.12</ele>
        <time>2015-07-26T10:13:17Z</time>
      </trkpt>
      <trkpt lat="46.36013" lon="6.73439">
        <ele>1750.22</ele>
        <time>2015-07-26T10:14:22Z</time>
      </trkpt>
      <trkpt lat="46.35993" lon="6.73391">
        <ele>1757.91</ele>
        <time>2015-07-26T10:15:27Z</time>
      </trkpt>
      <trkpt lat="46.35995" lon="6.73348">
        <ele>1768.96</ele>
        <time>2015-07-26T10:16:32Z</time>
      </trkpt>
      <trkpt lat="46.35974" lon="6.73355">
        <ele>1777.61</ele>
        <time>2015-07-26T10:17:37Z</time>
      </trkpt>
      <trkpt lat="46.35959" lon="6.73356">
        <ele>1787.71</ele>
        <time>2015-07-26T10:18:42Z</time>
      </trkpt>
      <trkpt lat="46.35942" lon="6.73382">
        <ele>1795.4</ele>
        <time>2015-07-26T10:19:47Z</time>
      </trkpt>
      <trkpt lat="46.35918" lon="6.73357">
        <ele>1804.53</ele>
        <time>2015-07-26T10:20:52Z</time>
      </trkpt>
      <trkpt lat="46.35896" lon="6.73316">
        <ele>1812.22</ele>
        <time>2015-07-26T10:21:57Z</time>
      </trkpt>
      <trkpt lat="46.35881" lon="6.73277">
        <ele>1816.07</ele>
        <time>2015-07-26T10:23:02Z</time>
      </trkpt>
      <trkpt lat="46.35855" lon="6.73255">
        <ele>1818.95</ele>
        <time>2015-07-26T10:24:07Z</time>
      </trkpt>
      <trkpt lat="46.35832" lon="6.73242">
        <ele>1822.32</ele>
        <time>2015-07-26T10:25:12Z</time>
      </trkpt>
      <trkpt lat="46.35777" lon="6.7323">
        <ele>1822.32</ele>
        <time>2015-07-26T10:26:17Z</time>
      </trkpt>
      <trkpt lat="46.35749" lon="6.73227">
        <ele>1825.2</ele>
        <time>2015-07-26T10:27:22Z</time>
      </trkpt>
      <trkpt lat="46.35753" lon="6.73233">
        <ele>1825.68</ele>
        <time>2015-07-26T10:28:27Z</time>
      </trkpt>
      <trkpt lat="46.35723" lon="6.7319">
        <ele>1827.6</ele>
        <time>2015-07-26T10:29:32Z</time>
      </trkpt>
      <trkpt lat="46.35682" lon="6.73162">
        <ele>1829.05</ele>
        <time>2015-07-26T10:30:37Z</time>
      </trkpt>
      <trkpt lat="46.3567" lon="6.73151">
        <ele>1830.01</ele>
        <time>2015-07-26T10:31:42Z</time>
      </trkpt>
      <trkpt lat="46.35623" lon="6.73096">
        <ele>1831.45</ele>
        <time>2015-07-26T10:32:47Z</time>
      </trkpt>
      <trkpt lat="46.35587" lon="6.73043">
        <ele>1835.77</ele>
        <time>2015-07-26T10:33:52Z</time>
      </trkpt>
      <trkpt lat="46.35558" lon="6.72982">
        <ele>1836.26</ele>
        <time>2015-07-26T10:34:57Z</time>
      </trkpt>
      <trkpt lat="46.35527" lon="6.72939">
        <ele>1835.77</ele>
        <time>2015-07-26T10:36:02Z</time>
      </trkpt>
      <trkpt lat="46.35495" lon="6.72909">
        <ele>1836.74</ele>
        <time>2015-07-26T10:37:07Z</time>
      </trkpt>
      <trkpt lat="46.35457" lon="6.72866">
        <ele>1836.74</ele>
        <time>2015-07-26T10:38:12Z</time>
      </trkpt>
      <trkpt lat="46.35437" lon="6.7279">
        <ele>1839.14</ele>
        <time>2015-07-26T10:39:17Z</time>
      </trkpt>
      <trkpt lat="46.35423" lon="6.72716">
        <ele>1842.5</ele>
        <time>2015-07-26T10:40:22Z</time>
      </trkpt>
      <trkpt lat="46.35398" lon="6.72669">
        <ele>1843.47</ele>
        <time>2015-07-26T10:41:27Z</time>
      </trkpt>
      <trkpt lat="46.35374" lon="6.7263">
        <ele>1846.35</ele>
        <time>2015-07-26T10:42:32Z</time>
      </trkpt>
      <trkpt lat="46.35375" lon="6.7262">
        <ele>1846.83</ele>
        <time>2015-07-26T10:43:37Z</time>
      </trkpt>
      <trkpt lat="46.35369" lon="6.72607">
        <ele>1849.23</ele>
        <time>2015-07-26T10:44:42Z</time>
      </trkpt>
      <trkpt lat="46.35353" lon="6.72589">
        <ele>1850.19</ele>
        <time>2015-07-26T10:45:47Z</time>
      </trkpt>
      <trkpt lat="46.35321" lon="6.72551">
        <ele>1855</ele>
        <time>2015-07-26T10:46:52Z</time>
      </trkpt>
      <trkpt lat="46.35312" lon="6.72513">
        <ele>1864.13</ele>
        <time>2015-07-26T10:47:57Z</time>
      </trkpt>
      <trkpt lat="46.35291" lon="6.72485">
        <ele>1868.46</ele>
        <time>2015-07-26T10:49:02Z</time>
      </trkpt>
      <trkpt lat="46.35258" lon="6.72464">
        <ele>1874.71</ele>
        <time>2015-07-26T10:50:07Z</time>
      </trkpt>
      <trkpt lat="46.35245" lon="6.72438">
        <ele>1880.96</ele>
        <time>2015-07-26T10:51:12Z</time>
      </trkpt>
      <trkpt lat="46.3523" lon="6.72425">
        <ele>1887.69</ele>
        <time>2015-07-26T10:52:17Z</time>
      </trkpt>
      <trkpt lat="46.35218" lon="6.72414">
        <ele>1893.45</ele>
        <time>2015-07-26T10:53:22Z</time>
      </trkpt>
      <trkpt lat="46.35207" lon="6.72421">
        <ele>1897.3</ele>
        <time>2015-07-26T10:54:27Z</time>
      </trkpt>
      <trkpt lat="46.35211" lon="6.72409">
        <ele>1898.74</ele>
        <time>2015-07-26T10:55:32Z</time>
      </trkpt>
      <trkpt lat="46.35207" lon="6.72407">
        <ele>1901.14</ele>
        <time>2015-07-26T10:56:37Z</time>
      </trkpt>
      <trkpt lat="46.35185" lon="6.72391">
        <ele>1908.83</ele>
        <time>2015-07-26T10:57:42Z</time>
      </trkpt>
      <trkpt lat="46.35192" lon="6.72381">
        <ele>1910.76</ele>
        <time>2015-07-26T10:58:47Z</time>
      </trkpt>
      <trkpt lat="46.35182" lon="6.72353">
        <ele>1919.89</ele>
        <time>2015-07-26T10:59:52Z</time>
      </trkpt>
      <trkpt lat="46.35157" lon="6.72372">
        <ele>1927.1</ele>
        <time>2015-07-26T11:00:57Z</time>
      </trkpt>
      <trkpt lat="46.35157" lon="6.72373">
        <ele>1926.14</ele>
        <time>2015-07-26T11:02:02Z</time>
      </trkpt>
      <trkpt lat="46.35137" lon="6.72427">
        <ele>1921.81</ele>
        <time>2015-07-26T11:03:07Z</time>
      </trkpt>
      <trkpt lat="46.35132" lon="6.72458">
        <ele>1921.33</ele>
        <time>2015-07-26T11:04:12Z</time>
      </trkpt>
      <trkpt lat="46.35133" lon="6.72462">
        <ele>1920.85</ele>
        <time>2015-07-26T11:05:04Z</time>
      </trkpt>
    </trkseg>
  </trk>
</gpx>